Dixon, Kentucky
Current Conditions -  °F | °C
As of 9:15 AM on Friday 19 Dec 2014 (Local Time) from KEHR Reporting Station
Overcast Overcast  
Wind Chill: -3°   Ceiling: 4400
Heat Index:   Visibility: 10mi
Dew Point: -4°   Wind: 6mph
Humidity: 75%   Direction: 60°ENE
Pressure: 30.32"   Gusts: NA
Location:  37.52°N, 87.69°W
Report Text: KEHR 191515Z AUTO 06005KT 10SM OVC044 00/M04 A3032 RMK AO1
Loading
Personal Weather Stations






























Interactive Weather Map New forecast layout! Learn more

10-Day Weather Forecast

Advertisements
Track Severe Weather on mobile